Time;durP1;ratioP1;P1;durP2;ratioP2;P2;SDS_P1;SDS_P2;PMS_P1;PMS_P2;Temp;Humidity;BMP_temperature;BMP_pressure;BME280_temperature;BME280_humidity;BME280_pressure;Samples;Min_cycle;Max_cycle;Signal;HPM_P1;HPM_P2
2022/12/29 00:00:11;;;;;;;5.80;2.33;;;6.90;99.90;;;;;;6308288;22;20178;-33
2022/12/29 00:02:41;;;;;;;2.80;2.00;;;6.80;99.90;;;;;;6335685;22;20481;-32
2022/12/29 00:05:07;;;;;;;3.27;2.00;;;6.80;99.90;;;;;;6308896;22;20216;-33
2022/12/29 00:07:33;;;;;;;4.00;1.80;;;6.70;99.90;;;;;;6336884;22;20177;-33
2022/12/29 00:09:58;;;;;;;3.30;2.07;;;6.80;99.90;;;;;;6308523;22;20188;-33
2022/12/29 00:15:36;;;;;;;4.53;1.90;;;6.80;99.90;;;;;;6309031;22;20206;-32
2022/12/29 00:17:55;;;;;;;2.20;1.80;;;6.80;99.90;;;;;;6308784;22;20190;-33
2022/12/29 00:36:56;;;;;;;4.90;1.87;;;6.70;99.90;;;;;;6309047;22;20185;-33
2022/12/29 00:45:04;;;;;;;2.77;1.47;;;7.30;99.90;;;;;;6222753;22;20175;-32
2022/12/29 00:47:29;;;;;;;2.40;1.97;;;7.60;99.90;;;;;;6305510;22;20152;-33
2022/12/29 00:49:55;;;;;;;4.23;1.77;;;7.70;99.90;;;;;;6305088;22;20202;-33
2022/12/29 00:52:21;;;;;;;2.20;1.67;;;7.80;99.90;;;;;;6305871;22;20159;-33
2022/12/29 00:54:47;;;;;;;4.17;1.50;;;8.00;99.90;;;;;;6305574;22;20159;-33
2022/12/29 00:57:13;;;;;;;2.40;1.50;;;8.20;99.90;;;;;;6304078;22;20186;-32
2022/12/29 00:59:41;;;;;;;2.50;1.70;;;8.40;99.90;;;;;;6280120;22;20171;-31
2022/12/29 01:02:07;;;;;;;3.00;1.70;;;8.50;99.90;;;;;;6305060;22;20158;-32
2022/12/29 01:04:34;;;;;;;3.37;1.60;;;8.50;99.90;;;;;;6279973;22;20213;-32
2022/12/29 01:07:00;;;;;;;2.87;1.33;;;8.60;99.90;;;;;;6306079;22;20167;-33
2022/12/29 01:12:10;;;;;;;4.20;1.57;;;8.70;99.90;;;;;;6333074;22;20152;-32
2022/12/29 01:14:37;;;;;;;2.73;1.43;;;8.70;99.90;;;;;;6279548;22;20171;-32
2022/12/29 01:17:04;;;;;;;2.53;1.30;;;8.80;99.90;;;;;;6279767;22;20629;-33
2022/12/29 01:19:30;;;;;;;2.27;1.27;;;8.80;99.90;;;;;;6304894;22;20175;-31
2022/12/29 01:21:56;;;;;;;1.90;1.30;;;8.80;99.90;;;;;;6333533;22;20155;-32
2022/12/29 01:24:22;;;;;;;3.40;1.50;;;8.90;99.90;;;;;;6279120;22;20155;-32
2022/12/29 01:26:48;;;;;;;3.77;1.10;;;8.90;99.90;;;;;;6305555;22;20155;-34
2022/12/29 01:29:16;;;;;;;1.80;1.33;;;8.90;99.90;;;;;;6279717;22;20194;-33
2022/12/29 01:31:44;;;;;;;3.37;1.30;;;8.90;99.90;;;;;;6279898;22;20159;-32
2022/12/29 01:34:10;;;;;;;3.53;1.30;;;8.90;99.90;;;;;;6304693;22;20166;-33
2022/12/29 01:36:37;;;;;;;1.67;1.30;;;8.90;99.90;;;;;;6305053;22;20190;-32
2022/12/29 01:39:03;;;;;;;2.50;1.53;;;8.90;99.90;;;;;;6278696;22;20305;-33
2022/12/29 01:41:29;;;;;;;2.07;1.63;;;8.90;99.90;;;;;;6332600;22;20147;-32
2022/12/29 01:43:58;;;;;;;2.10;1.47;;;8.90;99.90;;;;;;6279356;22;20162;-32
2022/12/29 01:46:36;;;;;;;2.50;1.70;;;9.00;99.90;;;;;;6279374;22;20163;-32
2022/12/29 01:49:05;;;;;;;3.40;1.73;;;9.00;99.90;;;;;;6278838;22;20186;-32
2022/12/29 01:51:35;;;;;;;2.73;1.97;;;9.00;99.90;;;;;;6306837;22;20263;-33
2022/12/29 01:54:04;;;;;;;2.57;1.80;;;9.20;99.90;;;;;;6305783;22;20147;-33
2022/12/29 01:56:30;;;;;;;3.60;1.90;;;9.20;99.90;;;;;;6307983;22;20185;-33
2022/12/29 01:59:02;;;;;;;3.23;1.63;;;9.20;99.90;;;;;;6307878;22;20238;-33
2022/12/29 02:01:28;;;;;;;3.23;1.60;;;9.30;99.90;;;;;;6282624;22;20151;-32
2022/12/29 02:03:54;;;;;;;2.90;1.60;;;9.30;99.90;;;;;;6307894;22;20156;-32
2022/12/29 02:06:38;;;;;;;7.13;3.07;;;9.30;99.90;;;;;;6280587;22;20491;-32
2022/12/29 02:09:03;;;;;;;3.47;1.80;;;9.30;99.90;;;;;;6305469;22;20186;-33
2022/12/29 02:11:30;;;;;;;1.97;1.60;;;9.40;99.90;;;;;;6307545;22;20159;-33
2022/12/29 02:13:56;;;;;;;2.10;1.70;;;9.40;99.90;;;;;;6307185;22;20159;-33
2022/12/29 02:16:53;;;;;;;3.57;1.93;;;9.30;99.90;;;;;;6307823;22;20187;-33
2022/12/29 02:19:45;;;;;;;2.73;1.83;;;9.20;99.90;;;;;;6281714;22;20694;-32
2022/12/29 02:22:29;;;;;;;3.63;1.53;;;9.20;99.90;;;;;;6282427;22;20154;-33
2022/12/29 02:25:18;;;;;;;4.27;2.10;;;9.30;99.90;;;;;;6306903;22;20143;-32
2022/12/29 02:28:26;;;;;;;3.70;1.77;;;9.30;99.90;;;;;;6307061;22;20289;-33
2022/12/29 02:31:05;;;;;;;3.80;2.00;;;9.30;99.90;;;;;;6281038;22;20185;-33
2022/12/29 02:33:45;;;;;;;3.80;1.90;;;9.30;99.90;;;;;;6307910;22;20219;-32
2022/12/29 02:36:26;;;;;;;2.83;1.70;;;9.30;99.90;;;;;;6307659;22;20155;-33
2022/12/29 02:38:58;;;;;;;5.47;2.30;;;9.40;99.90;;;;;;6307876;22;20174;-32
2022/12/29 02:41:42;;;;;;;4.87;2.70;;;9.40;99.90;;;;;;6282060;22;20148;-32
2022/12/29 02:44:34;;;;;;;5.57;3.20;;;9.40;99.90;;;;;;6308028;22;20150;-32
2022/12/29 02:47:15;;;;;;;3.17;1.70;;;9.40;99.90;;;;;;6306989;22;20155;-32
2022/12/29 02:50:15;;;;;;;2.00;1.20;;;9.40;99.90;;;;;;6280766;22;20278;-33
2022/12/29 02:52:52;;;;;;;1.20;1.10;;;9.40;99.90;;;;;;6307691;22;20147;-33
2022/12/29 02:55:18;;;;;;;1.43;1.10;;;9.40;99.90;;;;;;6335375;22;20524;-34
2022/12/29 02:57:43;;;;;;;2.23;1.40;;;9.40;99.90;;;;;;6281396;22;20262;-33
2022/12/29 03:00:15;;;;;;;3.10;1.10;;;9.40;99.90;;;;;;6307182;22;20309;-33
2022/12/29 03:02:53;;;;;;;3.13;1.70;;;9.40;99.90;;;;;;6307372;22;20281;-33
2022/12/29 03:05:38;;;;;;;3.50;1.10;;;9.50;99.90;;;;;;6282089;22;20178;-33
2022/12/29 03:08:17;;;;;;;1.77;1.00;;;9.60;99.90;;;;;;6307003;22;20163;-33
2022/12/29 03:10:49;;;;;;;1.33;1.23;;;9.50;99.90;;;;;;6281347;22;20174;-33
2022/12/29 03:16:28;;;;;;;1.27;1.13;;;9.50;99.90;;;;;;6307746;22;20179;-34
2022/12/29 03:19:09;;;;;;;2.20;0.90;;;9.40;99.90;;;;;;6307502;22;20214;-33
2022/12/29 03:24:47;;;;;;;2.50;1.30;;;9.50;99.90;;;;;;6309524;22;20156;-32
2022/12/29 03:27:19;;;;;;;3.43;1.20;;;9.50;99.90;;;;;;6309197;22;20597;-33
2022/12/29 03:30:00;;;;;;;1.73;1.20;;;9.50;99.90;;;;;;6283532;22;20175;-32
2022/12/29 03:32:33;;;;;;;4.80;1.50;;;9.50;99.90;;;;;;6283812;22;20155;-33
2022/12/29 03:35:00;;;;;;;2.93;1.60;;;9.60;99.90;;;;;;6309190;22;20155;-34
2022/12/29 03:37:32;;;;;;;3.53;1.53;;;9.50;99.90;;;;;;6283202;22;20179;-33
2022/12/29 03:39:59;;;;;;;2.27;1.13;;;9.50;99.90;;;;;;6283308;22;20176;-33
2022/12/29 03:42:29;;;;;;;2.17;1.10;;;9.50;99.90;;;;;;6309432;22;20155;-33
2022/12/29 03:44:56;;;;;;;2.30;1.10;;;9.50;99.90;;;;;;6308905;22;20204;-33
2022/12/29 03:47:24;;;;;;;2.73;1.20;;;9.50;99.90;;;;;;6309301;22;20262;-33
2022/12/29 03:49:50;;;;;;;2.30;1.40;;;9.50;99.90;;;;;;6283726;22;20191;-33
2022/12/29 03:52:17;;;;;;;3.27;1.40;;;9.40;99.90;;;;;;6309636;22;20247;-34
2022/12/29 03:54:44;;;;;;;4.53;1.57;;;9.40;99.90;;;;;;6309544;22;20485;-32
2022/12/29 03:57:11;;;;;;;1.47;1.20;;;9.40;99.90;;;;;;6310658;22;20265;-32
2022/12/29 03:59:49;;;;;;;4.50;1.40;;;9.40;99.90;;;;;;6286991;22;20253;-34
2022/12/29 04:02:15;;;;;;;2.30;1.20;;;9.50;99.90;;;;;;6308902;22;20155;-33
2022/12/29 04:04:41;;;;;;;1.87;1.20;;;9.40;99.90;;;;;;6283794;22;20156;-33
2022/12/29 04:07:07;;;;;;;2.37;1.20;;;9.30;99.90;;;;;;6309238;22;20172;-33
2022/12/29 04:09:33;;;;;;;2.03;1.20;;;9.30;99.90;;;;;;6282865;22;20182;-33
2022/12/29 04:11:59;;;;;;;2.83;1.43;;;9.20;99.90;;;;;;6283698;22;20155;-33
2022/12/29 04:14:26;;;;;;;1.60;1.20;;;9.10;99.90;;;;;;6308816;22;20613;-33
2022/12/29 04:16:52;;;;;;;3.10;1.13;;;9.10;99.90;;;;;;6309228;22;20652;-33
2022/12/29 04:19:18;;;;;;;2.40;1.33;;;9.10;99.90;;;;;;6308895;22;20182;-33
2022/12/29 04:21:46;;;;;;;3.33;1.43;;;9.10;99.90;;;;;;6309226;22;20243;-33
2022/12/29 04:24:12;;;;;;;3.60;1.20;;;9.10;99.90;;;;;;6308670;22;20650;-34
2022/12/29 04:26:41;;;;;;;1.57;1.23;;;9.00;99.90;;;;;;6283274;22;20189;-33
2022/12/29 04:29:30;;;;;;;3.43;1.30;;;9.00;99.90;;;;;;6308649;22;20179;-33
2022/12/29 04:32:31;;;;;;;3.23;1.60;;;9.10;99.90;;;;;;6275129;22;20160;-33
2022/12/29 04:34:57;;;;;;;1.87;1.20;;;9.00;99.90;;;;;;6283337;22;20201;-33
2022/12/29 04:37:23;;;;;;;2.63;1.47;;;9.00;99.90;;;;;;6282976;22;20199;-33
2022/12/29 04:39:49;;;;;;;2.20;1.43;;;8.90;99.90;;;;;;6282819;22;20186;-32
2022/12/29 04:42:15;;;;;;;2.27;1.40;;;8.80;99.90;;;;;;6283065;22;20158;-33
2022/12/29 04:44:43;;;;;;;3.00;1.40;;;8.70;99.90;;;;;;6283075;22;20155;-32
2022/12/29 04:47:34;;;;;;;2.83;1.40;;;8.60;99.90;;;;;;6331281;22;20159;-33
2022/12/29 04:50:15;;;;;;;4.27;1.70;;;8.60;99.90;;;;;;6285979;22;20191;-33
2022/12/29 04:53:03;;;;;;;2.90;1.70;;;8.70;99.90;;;;;;6308671;22;20238;-33
2022/12/29 04:55:29;;;;;;;2.77;1.30;;;8.80;99.90;;;;;;6308030;22;20186;-33
2022/12/29 04:57:55;;;;;;;1.87;1.40;;;8.90;99.90;;;;;;6282851;22;20293;-33
2022/12/29 05:00:21;;;;;;;2.10;1.47;;;8.90;99.90;;;;;;6282660;22;20177;-33
2022/12/29 05:02:47;;;;;;;2.27;1.40;;;8.80;99.90;;;;;;6282575;22;20166;-33
2022/12/29 05:05:14;;;;;;;3.27;2.33;;;8.80;99.90;;;;;;6282706;22;20152;-33
2022/12/29 05:07:43;;;;;;;3.37;2.10;;;8.70;99.90;;;;;;6282786;22;20166;-33
2022/12/29 05:10:09;;;;;;;2.53;1.57;;;8.70;99.90;;;;;;6308107;22;20183;-33
2022/12/29 05:12:37;;;;;;;1.83;1.40;;;8.60;99.90;;;;;;6307588;22;20242;-33
2022/12/29 05:15:04;;;;;;;2.47;1.60;;;8.50;99.90;;;;;;6308017;22;20159;-33
2022/12/29 05:17:30;;;;;;;2.70;1.57;;;8.50;99.90;;;;;;6308870;22;20211;-33
2022/12/29 05:19:56;;;;;;;2.03;1.20;;;8.50;99.90;;;;;;6282233;22;20198;-33
2022/12/29 05:22:22;;;;;;;2.63;1.60;;;8.40;99.90;;;;;;6308795;22;20159;-33
2022/12/29 05:24:48;;;;;;;1.87;1.40;;;8.50;99.90;;;;;;6308401;22;20162;-32
2022/12/29 05:27:17;;;;;;;3.30;1.73;;;8.50;99.90;;;;;;6308053;22;20175;-33
2022/12/29 05:30:03;;;;;;;4.67;1.53;;;8.50;99.90;;;;;;6334822;22;20317;-33
2022/12/29 05:32:29;;;;;;;3.63;1.67;;;8.50;99.90;;;;;;6282885;22;20166;-33
2022/12/29 05:34:56;;;;;;;2.03;1.47;;;8.40;99.90;;;;;;6307863;22;20168;-33
2022/12/29 05:37:23;;;;;;;3.13;1.33;;;8.50;99.90;;;;;;6282060;22;20178;-32
2022/12/29 05:39:49;;;;;;;3.20;1.50;;;8.40;99.90;;;;;;6282075;22;20179;-32
2022/12/29 05:42:15;;;;;;;3.37;2.07;;;8.40;99.90;;;;;;6307985;22;20239;-33
2022/12/29 05:44:53;;;;;;;2.67;2.00;;;8.40;99.90;;;;;;6308613;22;20196;-33
2022/12/29 05:47:38;;;;;;;2.80;1.63;;;8.40;99.90;;;;;;6336007;22;20196;-33
2022/12/29 05:50:28;;;;;;;5.40;1.80;;;8.50;99.90;;;;;;6307724;22;20191;-33
2022/12/29 05:53:11;;;;;;;3.43;2.03;;;8.70;99.90;;;;;;6308141;22;20178;-32
2022/12/29 05:55:38;;;;;;;2.93;1.60;;;8.80;99.90;;;;;;6281849;22;20182;-33
2022/12/29 05:58:04;;;;;;;1.93;1.50;;;8.80;99.90;;;;;;6280753;22;20266;-33
2022/12/29 06:00:30;;;;;;;3.20;1.70;;;8.80;99.90;;;;;;6307654;22;20177;-33
2022/12/29 06:02:57;;;;;;;2.27;1.47;;;8.90;99.90;;;;;;6307835;22;20159;-33
2022/12/29 06:05:23;;;;;;;2.97;1.57;;;8.90;99.90;;;;;;6308381;22;20229;-33
2022/12/29 06:07:49;;;;;;;3.73;1.70;;;8.90;99.90;;;;;;6307782;22;20163;-33
2022/12/29 06:10:16;;;;;;;3.13;1.60;;;9.00;99.90;;;;;;6282080;22;20179;-33
2022/12/29 06:12:50;;;;;;;2.83;1.67;;;9.00;99.90;;;;;;6283679;22;20151;-32
2022/12/29 06:15:16;;;;;;;4.27;2.00;;;9.00;99.90;;;;;;6281718;22;20166;-33
2022/12/29 06:17:43;;;;;;;2.03;1.50;;;9.00;99.90;;;;;;6282138;22;20179;-33
2022/12/29 06:20:10;;;;;;;3.07;1.77;;;9.10;99.90;;;;;;6307143;22;20171;-33
2022/12/29 06:22:39;;;;;;;3.27;1.60;;;9.10;99.90;;;;;;6307476;22;20233;-33
2022/12/29 06:25:05;;;;;;;5.23;2.67;;;9.20;99.90;;;;;;6307888;22;20179;-33
2022/12/29 06:27:36;;;;;;;3.17;2.70;;;9.20;99.90;;;;;;6282424;22;20255;-33
2022/12/29 06:30:05;;;;;;;2.40;2.00;;;9.20;99.90;;;;;;6335193;22;20181;-33
2022/12/29 06:32:31;;;;;;;2.80;2.00;;;9.20;99.90;;;;;;6281863;22;20186;-33
2022/12/29 06:35:06;;;;;;;3.27;1.67;;;9.20;99.90;;;;;;6283042;22;20219;-33
2022/12/29 06:37:36;;;;;;;2.77;1.60;;;9.20;99.90;;;;;;6308379;22;20167;-33
2022/12/29 06:40:04;;;;;;;3.90;1.57;;;9.20;99.90;;;;;;6307589;22;20174;-33
2022/12/29 06:42:41;;;;;;;3.33;1.60;;;9.20;99.90;;;;;;6284048;22;20155;-33
2022/12/29 06:45:30;;;;;;;2.90;1.50;;;9.20;99.90;;;;;;6322956;22;20155;-32
2022/12/29 06:47:56;;;;;;;5.13;1.87;;;9.30;99.90;;;;;;6335162;22;20147;-33
2022/12/29 06:50:21;;;;;;;2.63;1.60;;;9.40;99.90;;;;;;6307080;22;20249;-33
2022/12/29 06:52:47;;;;;;;3.23;1.50;;;9.50;99.90;;;;;;6307891;22;20279;-33
2022/12/29 06:55:13;;;;;;;1.50;1.33;;;9.50;99.90;;;;;;6308886;22;20149;-33
2022/12/29 06:57:39;;;;;;;3.70;1.70;;;9.60;99.90;;;;;;6309045;22;20186;-33
2022/12/29 07:00:05;;;;;;;2.60;1.50;;;9.70;99.90;;;;;;6309812;22;20194;-33
2022/12/29 07:02:31;;;;;;;4.53;1.53;;;9.70;99.90;;;;;;6283865;22;20183;-32
2022/12/29 07:04:57;;;;;;;2.40;1.40;;;9.80;99.90;;;;;;6337298;22;20285;-33
2022/12/29 07:07:23;;;;;;;2.63;1.60;;;9.80;99.90;;;;;;6313104;22;20166;-31
2022/12/29 07:09:49;;;;;;;2.67;1.60;;;9.80;99.90;;;;;;6337290;22;20186;-32
2022/12/29 07:12:14;;;;;;;5.70;2.13;;;9.70;99.90;;;;;;6283574;22;20166;-33
2022/12/29 07:14:40;;;;;;;2.00;1.80;;;9.70;99.90;;;;;;6337533;22;20162;-32
2022/12/29 07:17:06;;;;;;;2.37;1.70;;;9.70;99.90;;;;;;6283668;22;20266;-32
2022/12/29 07:19:33;;;;;;;3.13;1.70;;;9.60;99.90;;;;;;6309130;22;20220;-33
2022/12/29 07:21:59;;;;;;;2.63;1.70;;;9.60;99.90;;;;;;6309626;22;20147;-32
2022/12/29 07:24:27;;;;;;;3.03;1.60;;;9.50;99.90;;;;;;6308798;22;20158;-32
2022/12/29 07:26:54;;;;;;;2.27;1.53;;;9.50;99.90;;;;;;6309405;22;20620;-33
2022/12/29 07:29:20;;;;;;;2.10;1.50;;;9.50;99.90;;;;;;6336605;22;20194;-32
2022/12/29 07:31:47;;;;;;;2.60;1.53;;;9.40;99.90;;;;;;6309038;22;20180;-32
2022/12/29 07:34:15;;;;;;;2.40;1.53;;;9.40;99.90;;;;;;6282983;22;20549;-31
2022/12/29 07:36:42;;;;;;;3.00;1.53;;;9.40;99.90;;;;;;6336710;22;20175;-32
2022/12/29 07:39:07;;;;;;;2.40;1.63;;;9.40;99.90;;;;;;6307793;22;20163;-32
2022/12/29 07:41:34;;;;;;;2.83;1.50;;;9.40;99.90;;;;;;6336937;22;20179;-32
2022/12/29 07:44:01;;;;;;;3.07;1.53;;;9.40;99.90;;;;;;6308169;22;20594;-31
2022/12/29 07:46:35;;;;;;;2.97;1.83;;;9.50;99.90;;;;;;6309165;22;20198;-32
2022/12/29 07:49:01;;;;;;;2.97;1.80;;;9.60;99.90;;;;;;6308467;22;20187;-32
2022/12/29 07:51:27;;;;;;;5.03;2.40;;;9.70;99.90;;;;;;6283871;22;20147;-31
2022/12/29 07:53:52;;;;;;;4.00;1.37;;;9.70;99.90;;;;;;6336795;22;20163;-32
2022/12/29 07:56:18;;;;;;;3.03;1.57;;;9.90;99.90;;;;;;6282553;22;20159;-32
2022/12/29 07:58:44;;;;;;;3.47;1.43;;;10.00;99.90;;;;;;6307673;22;20151;-32
2022/12/29 08:01:10;;;;;;;3.43;1.73;;;10.00;99.90;;;;;;6335891;22;20148;-32
2022/12/29 08:03:36;;;;;;;3.73;1.20;;;10.00;99.90;;;;;;6283141;22;20147;-31
2022/12/29 08:06:02;;;;;;;2.87;1.90;;;10.10;99.90;;;;;;6306003;22;20156;-32
2022/12/29 08:08:28;;;;;;;3.77;2.10;;;10.10;99.90;;;;;;6334016;22;20148;-33
2022/12/29 08:10:54;;;;;;;5.20;2.23;;;10.20;99.90;;;;;;6306109;22;20588;-32
2022/12/29 08:13:21;;;;;;;4.30;2.10;;;10.20;99.90;;;;;;6334213;22;20164;-33
2022/12/29 08:15:46;;;;;;;2.30;1.67;;;10.20;99.90;;;;;;6307630;22;20450;-32
2022/12/29 08:18:12;;;;;;;2.60;1.87;;;10.20;99.90;;;;;;6307796;22;20226;-31
2022/12/29 08:20:38;;;;;;;4.77;2.40;;;10.30;99.90;;;;;;6280922;22;20179;-32
2022/12/29 08:23:04;;;;;;;7.53;3.10;;;10.30;99.90;;;;;;6308130;22;20153;-32
2022/12/29 08:25:31;;;;;;;7.47;4.07;;;10.30;99.90;;;;;;6335221;22;20152;-31
2022/12/29 08:27:57;;;;;;;4.17;2.60;;;10.30;99.90;;;;;;6307877;22;20160;-32
2022/12/29 08:30:23;;;;;;;6.60;4.27;;;10.30;99.90;;;;;;6307032;22;20184;-32
2022/12/29 08:32:49;;;;;;;4.57;2.17;;;10.30;99.90;;;;;;6307875;22;20160;-32
2022/12/29 08:35:15;;;;;;;4.37;1.90;;;10.40;99.90;;;;;;6335551;22;20160;-32
2022/12/29 08:37:40;;;;;;;4.87;3.53;;;10.40;99.90;;;;;;6335485;22;20634;-31
2022/12/29 08:40:07;;;;;;;4.53;2.40;;;10.40;99.90;;;;;;6335099;22;20194;-33
2022/12/29 08:42:33;;;;;;;5.83;3.00;;;10.40;99.90;;;;;;6281777;22;20166;-32
2022/12/29 08:44:59;;;;;;;7.10;3.53;;;10.40;99.90;;;;;;6307393;22;20242;-32
2022/12/29 08:47:25;;;;;;;10.60;4.80;;;10.50;99.90;;;;;;6334157;22;20172;-33
2022/12/29 08:49:51;;;;;;;8.63;4.60;;;10.50;99.90;;;;;;6334557;22;20278;-34
2022/12/29 08:52:17;;;;;;;9.83;5.70;;;10.50;99.90;;;;;;6335913;22;20197;-32
2022/12/29 08:54:43;;;;;;;9.10;4.10;;;10.40;99.90;;;;;;6308579;22;20242;-32
2022/12/29 08:57:11;;;;;;;8.60;3.77;;;10.50;99.90;;;;;;6308773;22;20187;-33
2022/12/29 08:59:46;;;;;;;7.23;3.73;;;10.50;99.90;;;;;;6307736;22;20178;-32
2022/12/29 09:02:13;;;;;;;4.83;2.40;;;10.50;99.90;;;;;;6308506;22;20179;-31
2022/12/29 09:04:38;;;;;;;4.57;3.07;;;10.60;99.90;;;;;;6283278;22;20153;-32
2022/12/29 09:07:05;;;;;;;5.27;3.67;;;10.60;99.90;;;;;;6336243;22;20234;-32
2022/12/29 09:09:31;;;;;;;3.90;2.80;;;10.60;99.90;;;;;;6308551;22;20180;-32
2022/12/29 09:11:57;;;;;;;4.43;3.07;;;10.60;99.90;;;;;;6335980;22;20162;-32
2022/12/29 09:14:23;;;;;;;4.67;3.23;;;10.50;99.90;;;;;;6307417;22;20477;-32
2022/12/29 09:19:38;;;;;;;4.40;2.33;;;10.70;99.90;;;;;;6307780;22;20183;-32
2022/12/29 09:22:04;;;;;;;4.70;2.30;;;10.70;99.90;;;;;;6282771;22;20161;-32
2022/12/29 09:24:30;;;;;;;2.63;1.73;;;10.80;99.90;;;;;;6307953;22;20153;-32
2022/12/29 09:26:56;;;;;;;4.07;2.07;;;11.00;99.90;;;;;;6335722;22;20165;-31
2022/12/29 09:29:22;;;;;;;3.17;1.50;;;11.00;99.90;;;;;;6307260;22;20244;-32
2022/12/29 09:31:48;;;;;;;2.90;1.60;;;11.00;99.90;;;;;;6337666;22;20178;-32
2022/12/29 09:34:14;;;;;;;4.63;2.23;;;11.10;99.90;;;;;;6310852;22;20145;-31
2022/12/29 09:36:40;;;;;;;2.77;2.00;;;11.10;99.90;;;;;;6310279;22;20187;-32
2022/12/29 09:39:06;;;;;;;4.00;2.30;;;11.10;99.90;;;;;;6310754;22;20181;-32
2022/12/29 09:41:57;;;;;;;2.90;2.23;;;11.20;99.90;;;;;;6338033;22;20237;-31
2022/12/29 09:44:28;;;;;;;2.30;1.90;;;11.10;99.90;;;;;;6310681;22;20152;-32
2022/12/29 09:46:56;;;;;;;4.47;2.60;;;11.20;99.90;;;;;;6309280;22;20197;-38
2022/12/29 09:49:45;;;;;;;2.57;1.90;;;11.20;99.90;;;;;;6281757;22;20159;-39
2022/12/29 09:52:44;;;;;;;2.37;1.60;;;11.10;99.90;;;;;;6307156;22;20153;-44
2022/12/29 09:55:15;;;;;;;6.20;2.40;;;11.20;99.90;;;;;;6332850;22;20184;-38
2022/12/29 09:58:02;;;;;;;2.67;1.70;;;11.10;99.90;;;;;;6308066;22;20173;-43
2022/12/29 10:00:58;;;;;;;2.90;1.70;;;11.10;99.90;;;;;;6307754;22;20141;-38
2022/12/29 10:03:28;;;;;;;2.17;1.50;;;11.10;99.90;;;;;;6250206;22;20281;-38
2022/12/29 10:06:32;;;;;;;1.80;1.70;;;11.10;99.90;;;;;;6308403;22;20176;-39
2022/12/29 10:09:17;;;;;;;1.77;1.43;;;11.10;99.90;;;;;;6280918;22;20171;-38
2022/12/29 10:12:28;;;;;;;1.73;1.60;;;11.10;99.90;;;;;;6308233;22;20140;-40
2022/12/29 10:15:03;;;;;;;1.70;1.60;;;11.00;99.90;;;;;;6307890;22;20159;-38
2022/12/29 10:17:53;;;;;;;2.53;1.40;;;11.00;99.90;;;;;;6308407;22;20172;-36
2022/12/29 10:20:38;;;;;;;2.80;1.40;;;11.10;99.90;;;;;;6307924;22;20159;-36
2022/12/29 10:23:22;;;;;;;3.53;1.53;;;11.10;99.90;;;;;;6309122;22;20202;-36
2022/12/29 10:25:48;;;;;;;3.43;1.57;;;11.10;99.90;;;;;;6308405;22;20168;-36
2022/12/29 10:28:34;;;;;;;3.60;1.53;;;11.00;99.90;;;;;;6279801;22;20164;-35
2022/12/29 10:31:03;;;;;;;2.83;1.37;;;11.00;99.90;;;;;;6279928;22;20152;-37
2022/12/29 10:33:39;;;;;;;2.37;1.40;;;11.00;99.90;;;;;;6334199;22;20156;-37
2022/12/29 10:36:17;;;;;;;1.83;1.33;;;11.00;99.90;;;;;;6280473;22;20180;-36
2022/12/29 10:39:11;;;;;;;2.27;1.43;;;11.10;99.90;;;;;;6334144;22;20205;-36
2022/12/29 10:41:55;;;;;;;4.00;1.50;;;11.10;99.90;;;;;;6306783;22;20146;-36
2022/12/29 10:44:24;;;;;;;2.70;2.00;;;11.20;99.90;;;;;;6307203;22;20145;-36
2022/12/29 10:46:59;;;;;;;3.33;2.03;;;11.20;99.90;;;;;;6281002;22;20194;-37
2022/12/29 10:49:29;;;;;;;1.50;1.40;;;11.20;99.90;;;;;;6279682;22;20167;-36
2022/12/29 10:52:00;;;;;;;2.93;1.50;;;11.20;99.90;;;;;;6334348;22;20149;-36
2022/12/29 10:54:44;;;;;;;2.27;1.80;;;11.30;99.90;;;;;;6281067;22;20162;-37
2022/12/29 10:57:25;;;;;;;2.87;1.67;;;11.20;99.90;;;;;;6280080;22;20175;-37
2022/12/29 11:00:15;;;;;;;3.30;1.43;;;11.20;99.90;;;;;;5062461;28;20599;-37
2022/12/29 11:03:04;;;;;;;4.20;1.50;;;11.20;99.90;;;;;;5061245;28;20180;-36
2022/12/29 11:05:56;;;;;;;5.10;1.57;;;11.30;99.90;;;;;;5063577;28;20197;-36
2022/12/29 11:08:27;;;;;;;2.23;1.50;;;11.30;99.90;;;;;;5058819;28;20634;-38
2022/12/29 11:11:05;;;;;;;3.27;1.70;;;11.30;99.90;;;;;;5062331;28;20180;-38
2022/12/29 11:13:34;;;;;;;4.53;2.27;;;11.30;99.90;;;;;;5063089;28;20215;-41
2022/12/29 11:16:00;;;;;;;2.03;1.70;;;11.30;99.90;;;;;;5066573;28;20214;-38
2022/12/29 11:18:31;;;;;;;3.43;1.87;;;11.30;99.90;;;;;;5064777;28;20212;-40
2022/12/29 11:21:00;;;;;;;4.53;2.27;;;11.30;99.90;;;;;;5047761;28;20177;-38
2022/12/29 11:23:26;;;;;;;3.67;2.53;;;11.30;99.90;;;;;;5046914;28;20187;-40
2022/12/29 11:26:15;;;;;;;3.27;2.30;;;11.20;99.90;;;;;;5046295;28;20197;-38
2022/12/29 11:28:44;;;;;;;3.13;2.00;;;11.20;99.90;;;;;;5060647;28;20185;-39
2022/12/29 11:31:10;;;;;;;4.20;2.07;;;11.10;99.90;;;;;;5066240;28;20245;-38
2022/12/29 11:33:38;;;;;;;2.33;1.60;;;11.00;99.90;;;;;;5054769;28;20183;-37
2022/12/29 11:36:13;;;;;;;4.07;1.83;;;10.90;99.90;;;;;;5029854;28;20203;-37
2022/12/29 11:38:48;;;;;;;2.50;1.70;;;10.90;99.90;;;;;;5076908;28;20211;-37
2022/12/29 11:41:25;;;;;;;4.57;2.10;;;10.90;99.90;;;;;;5066537;28;20175;-37
2022/12/29 11:43:52;;;;;;;2.80;1.60;;;11.00;99.90;;;;;;5034692;28;20204;-38
2022/12/29 11:46:26;;;;;;;3.27;1.80;;;11.10;99.90;;;;;;5046516;28;20326;-37
2022/12/29 11:48:52;;;;;;;2.40;1.60;;;11.00;99.90;;;;;;5062352;28;20194;-38
2022/12/29 11:51:25;;;;;;;4.20;1.93;;;11.10;99.90;;;;;;5066046;28;20195;-39
2022/12/29 11:53:57;;;;;;;3.47;1.90;;;11.10;99.90;;;;;;5050873;28;20275;-38
2022/12/29 11:56:41;;;;;;;4.27;2.60;;;11.00;99.90;;;;;;5046022;28;20194;-37
2022/12/29 11:59:40;;;;;;;2.70;2.00;;;11.00;99.90;;;;;;5045876;28;20237;-37
2022/12/29 12:02:48;;;;;;;3.23;2.13;;;11.00;99.90;;;;;;5047197;28;20182;-37
2022/12/29 12:05:43;;;;;;;3.80;2.27;;;10.90;99.90;;;;;;5028071;28;20204;-39
2022/12/29 12:08:17;;;;;;;6.17;4.13;;;10.90;99.90;;;;;;5070652;28;20187;-37
2022/12/29 12:10:48;;;;;;;3.90;2.80;;;10.90;99.90;;;;;;5057610;28;20236;-38
2022/12/29 12:13:26;;;;;;;4.60;3.30;;;10.90;99.90;;;;;;5043148;28;20184;-37
2022/12/29 12:16:00;;;;;;;7.17;2.60;;;10.90;99.90;;;;;;5015593;28;20202;-38
2022/12/29 12:18:56;;;;;;;6.87;2.73;;;10.90;99.90;;;;;;5016101;28;20235;-37
2022/12/29 12:21:34;;;;;;;2.77;1.70;;;10.90;99.90;;;;;;5033163;28;20179;-37
2022/12/29 12:24:23;;;;;;;4.60;2.17;;;10.80;99.90;;;;;;5032678;28;20183;-38
2022/12/29 12:27:09;;;;;;;2.53;2.03;;;10.80;99.90;;;;;;5043966;28;20211;-37
2022/12/29 12:29:42;;;;;;;2.73;2.00;;;10.70;99.90;;;;;;5051955;28;20178;-40
2022/12/29 12:32:11;;;;;;;3.13;2.00;;;10.70;99.90;;;;;;5022288;28;20186;-37
2022/12/29 12:34:43;;;;;;;3.20;1.97;;;10.70;99.90;;;;;;5019660;28;20233;-37
2022/12/29 12:37:15;;;;;;;2.93;2.10;;;10.70;99.90;;;;;;5040312;28;20222;-39
2022/12/29 12:40:26;;;;;;;4.00;2.17;;;10.70;99.90;;;;;;5048818;28;20203;-38
2022/12/29 12:43:25;;;;;;;3.90;2.10;;;10.60;99.90;;;;;;5030220;28;20183;-37
2022/12/29 12:46:13;;;;;;;3.73;2.40;;;10.60;99.90;;;;;;5020684;28;20198;-37
2022/12/29 12:49:10;;;;;;;3.20;2.23;;;10.60;99.90;;;;;;5033735;28;20185;-38
2022/12/29 12:51:38;;;;;;;4.33;2.40;;;10.70;99.90;;;;;;5031585;28;20272;-40
2022/12/29 12:54:35;;;;;;;9.10;2.90;;;10.70;99.90;;;;;;5036480;28;20185;-39
2022/12/29 12:57:26;;;;;;;8.23;3.37;;;10.80;99.90;;;;;;5032422;28;20230;-38
2022/12/29 13:00:17;;;;;;;4.83;2.57;;;10.80;99.90;;;;;;5031850;28;20215;-39
2022/12/29 13:03:25;;;;;;;6.60;3.00;;;10.80;99.90;;;;;;5033394;28;20187;-39
2022/12/29 13:05:59;;;;;;;5.77;2.97;;;10.70;99.90;;;;;;5034962;28;20220;-41
2022/12/29 13:08:51;;;;;;;6.43;2.60;;;10.70;99.90;;;;;;5059192;28;20181;-39
2022/12/29 13:11:23;;;;;;;5.03;2.63;;;10.70;99.90;;;;;;5033210;28;20173;-38
2022/12/29 13:14:00;;;;;;;7.30;4.50;;;10.80;99.90;;;;;;5034942;28;20187;-38
2022/12/29 13:16:36;;;;;;;9.23;4.90;;;10.80;99.90;;;;;;5036095;28;20199;-41
2022/12/29 13:19:40;;;;;;;8.60;4.27;;;10.80;99.90;;;;;;5035620;28;20632;-38
2022/12/29 13:22:27;;;;;;;6.80;3.67;;;10.80;99.90;;;;;;5031418;28;20178;-38
2022/12/29 13:25:34;;;;;;;6.43;3.90;;;10.90;99.90;;;;;;5021637;28;20187;-40
2022/12/29 13:28:00;;;;;;;6.20;4.00;;;10.90;99.90;;;;;;5043022;28;20271;-40
2022/12/29 13:30:33;;;;;;;4.40;2.87;;;10.90;99.90;;;;;;5036278;28;20265;-38
2022/12/29 13:33:28;;;;;;;6.27;3.57;;;10.90;99.90;;;;;;5050694;28;20214;-39
2022/12/29 13:36:03;;;;;;;3.57;2.70;;;10.90;99.90;;;;;;5036250;28;20202;-40
2022/12/29 13:38:35;;;;;;;5.10;3.20;;;11.00;99.90;;;;;;5043076;28;20209;-39
2022/12/29 13:41:07;;;;;;;4.63;2.90;;;11.00;99.90;;;;;;5035104;28;20200;-39
2022/12/29 13:43:37;;;;;;;3.60;2.70;;;11.10;99.90;;;;;;5032104;28;20637;-42
2022/12/29 13:46:10;;;;;;;4.53;2.33;;;11.10;99.90;;;;;;5041001;28;20237;-39
2022/12/29 13:49:17;;;;;;;2.90;2.53;;;11.10;99.90;;;;;;5043853;28;20191;-38
2022/12/29 13:52:08;;;;;;;2.20;1.93;;;11.20;99.90;;;;;;5042113;28;20188;-40
2022/12/29 13:54:37;;;;;;;3.37;2.00;;;11.20;99.90;;;;;;5030515;28;20185;-39
2022/12/29 13:57:14;;;;;;;3.83;2.20;;;11.30;99.90;;;;;;5052747;28;20208;-38
2022/12/29 14:00:01;;;;;;;3.57;2.30;;;11.30;99.90;;;;;;5059022;28;20204;-38